Aviation Digital Data Service (ADDS)

Output produced by METARs form (2315 UTC 24 May 2018)
found at http://aviationweather.gov/adds/metars/
 
KLCH 242253Z 17006KT 10SM SCT120 28/22 A3000 RMK AO2 SLP166 T02830217 $